createdAt,value
2023-01-08T00:05:12.642Z,100505.41
2023-01-08T00:15:34.511Z,100488.19
2023-01-08T00:25:56.045Z,100481.44
2023-01-08T00:36:18.532Z,100481.69
2023-01-08T00:46:39.921Z,100462.81
2023-01-08T00:57:01.269Z,100451.72
2023-01-08T01:07:22.847Z,100451.72
2023-01-08T01:17:45.144Z,100437.66
2023-01-08T01:28:06.517Z,100433.31
2023-01-08T01:38:27.989Z,100416.22
2023-01-08T01:48:51.632Z,100426.25
2023-01-08T01:59:13.195Z,100413.44
2023-01-08T02:09:43.523Z,100396.59
2023-01-08T02:20:11.409Z,100405.53
2023-01-08T02:30:32.916Z,100397.91
2023-01-08T02:40:57.042Z,100393.66
2023-01-08T02:51:24.230Z,100398.63
2023-01-08T03:01:46.417Z,100392.38
2023-01-08T03:12:21.212Z,100395.84
2023-01-08T03:22:45.065Z,100391.41
2023-01-08T03:33:08.993Z,100392.97
2023-01-08T03:43:30.459Z,100389.72
2023-01-08T03:53:54.441Z,100370.72
2023-01-08T04:04:15.926Z,100374.06
2023-01-08T04:14:37.338Z,100360.09
2023-01-08T04:24:58.701Z,100360.16
2023-01-08T04:35:20.078Z,100347.09
2023-01-08T04:45:41.429Z,100354.91
2023-01-08T04:56:07.015Z,100331.53
2023-01-08T05:06:29.045Z,100332.53
2023-01-08T05:16:50.401Z,100329.16
2023-01-08T05:27:11.766Z,100321.53
2023-01-08T05:37:36.945Z,100324.13
2023-01-08T05:47:58.305Z,100314.94
2023-01-08T05:58:19.694Z,100303.88
2023-01-08T06:08:41.045Z,100291.72
2023-01-08T06:19:02.519Z,100285.25
2023-01-08T06:29:23.888Z,100294.00
2023-01-08T06:39:45.238Z,100311.03
2023-01-08T06:50:06.909Z,100301.13
2023-01-08T07:00:28.402Z,100305.78
2023-01-08T07:10:49.800Z,100296.50
2023-01-08T07:21:11.246Z,100299.25
2023-01-08T07:31:33.239Z,100291.63
2023-01-08T07:41:54.664Z,100302.34
2023-01-08T07:52:16.013Z,100310.34
2023-01-08T08:02:37.479Z,100313.69
2023-01-08T08:12:58.897Z,100312.75
2023-01-08T08:23:20.259Z,100298.88
2023-01-08T08:33:41.669Z,100298.97
2023-01-08T08:44:03.084Z,100308.44
2023-01-08T08:54:24.430Z,100286.03
2023-01-08T09:04:45.799Z,100276.56
2023-01-08T09:15:07.485Z,100286.03
2023-01-08T09:25:29.564Z,100289.66
2023-01-08T09:35:50.915Z,100280.41
2023-01-08T09:46:12.569Z,100287.22
2023-01-08T09:56:35.328Z,100279.31
2023-01-08T10:07:11.849Z,100284.16
2023-01-08T10:17:36.230Z,100272.66
2023-01-08T10:27:59.064Z,100266.22
2023-01-08T10:38:25.685Z,100254.06
2023-01-08T10:48:50.284Z,100231.44
2023-01-08T10:59:21.468Z,100230.28
2023-01-08T11:09:47.883Z,100217.00
2023-01-08T11:20:18.645Z,100216.06
2023-01-08T11:30:40.305Z,100209.22
2023-01-08T11:41:24.149Z,100190.53
2023-01-08T11:52:04.237Z,100168.34
2023-01-08T12:02:41.483Z,100164.84
2023-01-08T12:13:15.377Z,100161.09
2023-01-08T12:23:48.903Z,100146.66
2023-01-08T12:34:17.002Z,100132.59
2023-01-08T12:44:40.010Z,100125.31
2023-01-08T12:55:22.137Z,100120.38
2023-01-08T13:05:44.693Z,100122.97
2023-01-08T13:16:07.120Z,100119.63
2023-01-08T13:26:30.699Z,100105.53
2023-01-08T13:36:56.276Z,100078.88
2023-01-08T13:47:25.944Z,100067.50
2023-01-08T13:57:49.445Z,100066.56
2023-01-08T14:08:21.454Z,100057.16
2023-01-08T14:18:46.512Z,100040.78
2023-01-08T14:29:21.278Z,100033.97
2023-01-08T14:39:43.704Z,100032.47
2023-01-08T14:50:05.900Z,100030.03
2023-01-08T15:00:28.713Z,100023.63
2023-01-08T15:11:02.405Z,100020.56
2023-01-08T15:21:23.892Z,100019.88
2023-01-08T15:31:47.188Z,100012.50
2023-01-08T15:42:46.465Z,100005.31
2023-01-08T15:53:13.060Z,99997.72
2023-01-08T16:03:34.503Z,99993.41
2023-01-08T16:13:55.883Z,99996.94
2023-01-08T16:24:17.258Z,99998.75
2023-01-08T16:34:38.652Z,99991.91
2023-01-08T16:45:00.079Z,99981.44
2023-01-08T16:55:21.500Z,99966.56
2023-01-08T17:05:42.873Z,99968.00
2023-01-08T17:16:07.331Z,99961.44
2023-01-08T17:26:28.812Z,99964.50
2023-01-08T17:36:50.183Z,99950.09
2023-01-08T17:47:12.166Z,99960.13
2023-01-08T17:57:33.586Z,99963.94
2023-01-08T18:07:54.957Z,99969.22
2023-01-08T18:18:16.347Z,99968.97
2023-01-08T18:28:37.713Z,99949.38
2023-01-08T18:39:00.138Z,99949.06
2023-01-08T18:49:23.410Z,99939.88
2023-01-08T18:59:44.861Z,99924.97
2023-01-08T19:10:06.336Z,99918.22
2023-01-08T19:20:27.896Z,99915.19
2023-01-08T19:30:59.552Z,99888.25
2023-01-08T19:41:39.551Z,99886.81
2023-01-08T19:52:00.923Z,99868.31
2023-01-08T20:02:22.385Z,99855.56
2023-01-08T20:12:43.825Z,99845.38
2023-01-08T20:23:05.226Z,99838.13
2023-01-08T20:33:26.601Z,99827.53
2023-01-08T20:43:48.393Z,99808.00
2023-01-08T20:54:11.801Z,99800.59
2023-01-08T21:04:33.561Z,99787.84
2023-01-08T21:14:54.939Z,99784.56
2023-01-08T21:25:16.351Z,99783.09
2023-01-08T21:35:38.698Z,99765.28
2023-01-08T21:46:01.395Z,99737.94
2023-01-08T21:56:22.886Z,99724.28
2023-01-08T22:06:44.285Z,99714.00
2023-01-08T22:17:08.374Z,99698.03
2023-01-08T22:27:30.278Z,99678.19
2023-01-08T22:37:51.672Z,99668.75
2023-01-08T22:48:13.103Z,99649.94
2023-01-08T22:58:34.449Z,99647.97
2023-01-08T23:08:55.986Z,99642.09
2023-01-08T23:19:17.442Z,99617.81
2023-01-08T23:29:38.784Z,99598.03
2023-01-08T23:40:00.148Z,99591.91
2023-01-08T23:50:21.525Z,99588.47
